DAOO

Details ICAO DAOO (ORN)
Name ES SENIA
Region Algeria
Timezone Africa/Algiers (UTC+1.0)
Plans Departing 223
Arriving 241
Stats Elevation 295 ft / 90 m (AMSL)
Location 35.623900° -0.621185°
Runways 1
Magnetic Variation 0.277° E
Sunrise 2019-02-20 06:45:39 UTC / 2019-02-20 07:45:39 Local
Sunset 2019-02-20 17:49:48 UTC / 2019-02-20 18:49:48 Local
Advertisement - Login to hide

Runways

ID Width Length Bearing (true/mag) Surface Threshold Overrun Markings Lighting
07 148 ft / 45 m 10,006 ft / 3,050 m 67.06° / 66.78° ASPHALT 0 ft / 0 m 328 ft / 100 m APP CENTERLINE EDGE THRESHOLD SSALR TDZ
25 148 ft / 45 m 10,006 ft / 3,050 m 247.08° / 246.80° ASPHALT 196 ft / 60 m 0 ft / 0 m APP CENTERLINE EDGE THRESHOLD ALSF-II

Map

Weather


0- 5 10 15 20 25 30 35+ Temperature / °C

Clouds and Precipitation
Forecast for 2019-02-20 18:00 UTC. Updated 5 hours ago

Ground ~20,000 ft ~40,000 ft Winds

METAR

DAOO 202100Z 36003KT 9999 FEW023 12/09 Q1025

TAF

TAF DAOO 201700Z 2018/2118 34010KT 9999 SCT023 BECMG 2020/2023 VRB02KT PROB30 TEMPO 2102/2108 2000 BR BKN010 BECMG 2109/2112 05014KT

Frequencies

Approach 121.10 MHz ORAN APP
Tower 119.70 MHz ORAN TWR
Tower 118.10 MHz ORAN TWR
Approach 128.20 MHz ORAN APP
Warning: Do not use this data for real-world aviation or navigation. No guarantee of current accuracy is given.